createdAt,value
2023-04-16T00:02:08.608Z,8.00
2023-04-16T00:04:36.631Z,8.00
2023-04-16T00:07:04.794Z,8.10
2023-04-16T00:09:34.112Z,8.20
2023-04-16T00:12:02.011Z,8.20
2023-04-16T00:14:31.040Z,8.20
2023-04-16T00:16:59.077Z,8.10
2023-04-16T00:19:26.973Z,8.20
2023-04-16T00:21:54.876Z,8.20
2023-04-16T00:24:22.685Z,8.20
2023-04-16T00:26:51.866Z,8.20
2023-04-16T00:29:19.901Z,8.20
2023-04-16T00:31:47.754Z,8.20
2023-04-16T00:34:15.662Z,8.20
2023-04-16T00:36:43.535Z,8.20
2023-04-16T00:39:11.574Z,8.30
2023-04-16T00:41:39.700Z,8.20
2023-04-16T00:44:09.067Z,8.30
2023-04-16T00:46:38.293Z,8.30
2023-04-16T00:49:06.394Z,8.30
2023-04-16T00:51:36.132Z,8.20
2023-04-16T00:54:05.210Z,8.20
2023-04-16T00:56:34.237Z,8.30
2023-04-16T00:59:02.322Z,8.20
2023-04-16T01:01:31.728Z,8.30
2023-04-16T01:03:59.779Z,8.30
2023-04-16T01:06:28.423Z,8.30
2023-04-16T01:08:56.409Z,8.40
2023-04-16T01:11:24.197Z,8.40
2023-04-16T01:13:52.080Z,8.30
2023-04-16T01:16:20.206Z,8.40
2023-04-16T01:18:49.600Z,8.50
2023-04-16T01:21:18.809Z,8.50
2023-04-16T01:23:46.776Z,8.50
2023-04-16T01:26:14.740Z,8.50
2023-04-16T01:28:42.907Z,8.50
2023-04-16T01:31:10.802Z,8.50
2023-04-16T01:33:48.649Z,8.60
2023-04-16T01:36:18.041Z,8.60
2023-04-16T01:38:46.983Z,8.60
2023-04-16T01:41:14.913Z,8.60
2023-04-16T01:43:42.981Z,8.60
2023-04-16T01:46:15.267Z,8.60
2023-04-16T01:48:43.390Z,8.70
2023-04-16T01:51:11.350Z,8.70
2023-04-16T01:53:40.582Z,8.70
2023-04-16T01:56:08.631Z,8.60
2023-04-16T01:58:36.767Z,8.70
2023-04-16T02:01:05.838Z,8.70
2023-04-16T02:03:34.625Z,8.70
2023-04-16T02:06:02.675Z,8.70
2023-04-16T02:08:30.690Z,8.70
2023-04-16T02:11:00.279Z,8.70
2023-04-16T02:13:28.285Z,8.70
2023-04-16T02:15:56.106Z,8.70
2023-04-16T02:18:43.802Z,8.70
2023-04-16T02:21:13.839Z,8.70
2023-04-16T02:23:42.386Z,8.70
2023-04-16T02:26:13.484Z,8.70
2023-04-16T02:28:41.783Z,8.70
2023-04-16T02:31:11.807Z,8.70
2023-04-16T02:33:44.588Z,8.70
2023-04-16T02:36:12.884Z,8.80
2023-04-16T02:38:40.758Z,8.80
2023-04-16T02:41:09.070Z,8.80
2023-04-16T02:43:38.203Z,8.90
2023-04-16T02:46:06.611Z,8.90
2023-04-16T02:48:34.661Z,8.80
2023-04-16T02:51:02.613Z,8.80
2023-04-16T02:53:30.844Z,8.80
2023-04-16T02:55:58.856Z,8.90
2023-04-16T02:58:27.388Z,8.80
2023-04-16T03:00:56.679Z,8.80
2023-04-16T03:03:24.900Z,8.90
2023-04-16T03:05:52.883Z,8.90
2023-04-16T03:08:20.740Z,8.90
2023-04-16T03:10:48.717Z,8.90
2023-04-16T03:13:16.578Z,8.90
2023-04-16T03:15:50.367Z,8.80
2023-04-16T03:18:19.602Z,8.80
2023-04-16T03:20:47.417Z,8.80
2023-04-16T03:23:15.431Z,8.80
2023-04-16T03:25:46.500Z,8.90
2023-04-16T03:28:18.558Z,8.80
2023-04-16T03:30:52.072Z,8.90
2023-04-16T03:33:22.949Z,8.80
2023-04-16T03:35:58.765Z,8.80
2023-04-16T03:38:29.807Z,8.90
2023-04-16T03:40:59.961Z,8.80
2023-04-16T03:43:28.368Z,8.80
2023-04-16T03:45:56.425Z,8.80
2023-04-16T03:48:26.645Z,8.80
2023-04-16T03:50:55.400Z,8.80
2023-04-16T03:53:23.492Z,8.80
2023-04-16T03:55:52.222Z,8.80
2023-04-16T03:58:21.373Z,8.80
2023-04-16T04:00:49.340Z,8.80
2023-04-16T04:03:18.892Z,8.70
2023-04-16T04:05:51.129Z,8.70
2023-04-16T04:08:27.202Z,8.70
2023-04-16T04:10:56.760Z,8.70
2023-04-16T04:13:26.044Z,8.70
2023-04-16T04:15:54.804Z,8.70
2023-04-16T04:18:23.785Z,8.80
2023-04-16T04:20:53.366Z,8.80
2023-04-16T04:23:25.055Z,8.80
2023-04-16T04:25:52.963Z,8.90
2023-04-16T04:28:20.771Z,8.80
2023-04-16T04:30:48.960Z,8.80
2023-04-16T04:33:16.934Z,8.80
2023-04-16T04:35:44.800Z,8.90
2023-04-16T04:38:16.169Z,8.90
2023-04-16T04:40:44.458Z,8.90
2023-04-16T04:43:12.527Z,8.90
2023-04-16T04:45:41.057Z,8.90
2023-04-16T04:48:08.895Z,9.00
2023-04-16T04:50:37.959Z,8.90
2023-04-16T04:53:09.892Z,9.00
2023-04-16T04:55:40.600Z,9.00
2023-04-16T04:58:09.149Z,9.00
2023-04-16T05:00:37.889Z,9.00
2023-04-16T05:03:07.786Z,9.00
2023-04-16T05:05:35.622Z,9.00
2023-04-16T05:08:03.652Z,9.00
2023-04-16T05:10:31.561Z,9.00
2023-04-16T05:13:00.905Z,9.10
2023-04-16T05:15:28.786Z,9.10
2023-04-16T05:17:56.834Z,9.10
2023-04-16T05:20:25.022Z,9.00
2023-04-16T05:22:52.977Z,9.00
2023-04-16T05:25:20.954Z,9.00
2023-04-16T05:27:48.831Z,9.10
2023-04-16T05:30:18.028Z,9.20
2023-04-16T05:32:45.983Z,9.20
2023-04-16T05:35:15.937Z,9.20
2023-04-16T05:37:45.160Z,9.20
2023-04-16T05:40:14.861Z,9.20
2023-04-16T05:42:42.764Z,9.20
2023-04-16T05:45:11.581Z,9.10
2023-04-16T05:47:40.857Z,9.10
2023-04-16T05:50:09.286Z,9.20
2023-04-16T05:52:37.168Z,9.20
2023-04-16T05:55:05.388Z,9.10
2023-04-16T05:57:34.418Z,9.10
2023-04-16T06:00:02.357Z,9.10
2023-04-16T06:02:41.773Z,9.20
2023-04-16T06:05:10.070Z,9.30
2023-04-16T06:07:37.954Z,9.30
2023-04-16T06:10:06.618Z,9.40
2023-04-16T06:12:34.438Z,9.40
2023-04-16T06:15:03.957Z,9.50
2023-04-16T06:17:31.789Z,9.50
2023-04-16T06:20:01.118Z,9.40
2023-04-16T06:22:29.107Z,9.50
2023-04-16T06:24:56.994Z,9.50
2023-04-16T06:27:24.992Z,9.50
2023-04-16T06:29:52.826Z,9.60
2023-04-16T06:32:20.893Z,9.60
2023-04-16T06:34:48.692Z,9.70
2023-04-16T06:37:17.975Z,9.70
2023-04-16T06:39:45.878Z,9.60
2023-04-16T06:42:13.726Z,9.70
2023-04-16T06:44:41.643Z,9.90
2023-04-16T06:47:09.820Z,9.90
2023-04-16T06:49:39.393Z,9.80
2023-04-16T06:52:07.294Z,9.80
2023-04-16T06:54:36.952Z,9.90
2023-04-16T06:57:05.008Z,9.80
2023-04-16T06:59:32.808Z,9.80
2023-04-16T07:02:00.890Z,9.90
2023-04-16T07:04:28.866Z,10.00
2023-04-16T07:06:58.299Z,10.00
2023-04-16T07:09:26.717Z,10.00
2023-04-16T07:11:56.246Z,9.90
2023-04-16T07:14:24.186Z,9.90
2023-04-16T07:16:52.126Z,9.90
2023-04-16T07:19:20.016Z,10.00
2023-04-16T07:21:47.908Z,10.00
2023-04-16T07:24:15.810Z,10.00
2023-04-16T07:26:43.683Z,10.00
2023-04-16T07:29:13.454Z,10.10
2023-04-16T07:31:41.373Z,10.10
2023-04-16T07:34:09.382Z,10.10
2023-04-16T07:36:37.277Z,10.10
2023-04-16T07:39:05.691Z,9.90
2023-04-16T07:41:33.646Z,9.90
2023-04-16T07:44:01.776Z,9.90
2023-04-16T07:46:45.669Z,9.90
2023-04-16T07:49:14.587Z,10.00
2023-04-16T07:51:42.443Z,9.90
2023-04-16T07:54:11.078Z,10.00
2023-04-16T07:56:38.951Z,10.10
2023-04-16T07:59:21.104Z,10.10
2023-04-16T08:01:53.519Z,9.90
2023-04-16T08:04:25.041Z,10.10
2023-04-16T08:06:53.994Z,10.20
2023-04-16T08:09:23.873Z,10.30
2023-04-16T08:11:51.870Z,10.20
2023-04-16T08:14:19.665Z,10.20
2023-04-16T08:16:47.507Z,10.30
2023-04-16T08:19:16.754Z,10.20
2023-04-16T08:21:44.751Z,10.10
2023-04-16T08:24:12.589Z,10.30
2023-04-16T08:26:40.669Z,10.30
2023-04-16T08:29:08.682Z,10.30
2023-04-16T08:31:36.845Z,10.30
2023-04-16T08:34:04.700Z,10.30
2023-04-16T08:36:33.896Z,10.20
2023-04-16T08:39:01.701Z,10.40
2023-04-16T08:41:31.888Z,10.30
2023-04-16T08:44:01.696Z,10.40
2023-04-16T08:46:32.391Z,10.60
2023-04-16T08:49:01.516Z,10.60
2023-04-16T08:51:34.971Z,10.60
2023-04-16T08:54:09.439Z,10.60
2023-04-16T08:56:38.231Z,10.70
2023-04-16T08:59:06.300Z,10.80
2023-04-16T09:01:34.752Z,10.80
2023-04-16T09:04:03.888Z,10.80
2023-04-16T09:06:33.981Z,10.80
2023-04-16T09:09:04.606Z,10.80
2023-04-16T09:11:34.888Z,10.80
2023-04-16T09:14:02.914Z,10.90
2023-04-16T09:16:35.190Z,10.80
2023-04-16T09:19:03.810Z,11.00
2023-04-16T09:21:32.082Z,11.00
2023-04-16T09:24:01.194Z,11.00
2023-04-16T09:26:29.263Z,11.00
2023-04-16T09:28:58.561Z,11.00
2023-04-16T09:31:27.127Z,10.90
2023-04-16T09:34:05.343Z,10.80
2023-04-16T09:36:33.903Z,10.90
2023-04-16T09:39:02.341Z,10.80
2023-04-16T09:41:31.830Z,10.80
2023-04-16T09:44:02.430Z,10.70
2023-04-16T09:46:32.639Z,10.50
2023-04-16T09:49:06.284Z,10.50
2023-04-16T09:51:38.373Z,10.60
2023-04-16T09:54:06.670Z,10.50
2023-04-16T09:56:34.643Z,10.50
2023-04-16T09:59:04.189Z,10.50
2023-04-16T10:01:32.952Z,10.40
2023-04-16T10:04:00.936Z,10.40
2023-04-16T10:06:31.136Z,10.40
2023-04-16T10:08:59.037Z,10.50
2023-04-16T10:11:27.019Z,10.40
2023-04-16T10:13:56.515Z,10.30
2023-04-16T10:16:26.739Z,10.30
2023-04-16T10:18:55.162Z,10.10
2023-04-16T10:21:23.451Z,10.10
2023-04-16T10:23:53.379Z,10.10
2023-04-16T10:26:23.051Z,10.10
2023-04-16T10:28:51.241Z,10.00
2023-04-16T10:31:19.141Z,10.00
2023-04-16T10:33:48.744Z,9.90
2023-04-16T10:36:18.040Z,10.00
2023-04-16T10:38:47.917Z,10.00
2023-04-16T10:41:15.889Z,10.10
2023-04-16T10:43:46.091Z,10.10
2023-04-16T10:46:22.479Z,10.10
2023-04-16T10:48:54.227Z,10.20
2023-04-16T10:51:28.032Z,10.20
2023-04-16T10:53:57.119Z,10.20
2023-04-16T10:56:26.121Z,10.30
2023-04-16T10:58:55.951Z,10.30
2023-04-16T11:01:32.469Z,10.40
2023-04-16T11:04:03.337Z,10.50
2023-04-16T11:06:32.051Z,10.50
2023-04-16T11:08:59.986Z,10.40
2023-04-16T11:11:29.969Z,10.40
2023-04-16T11:13:57.993Z,10.40
2023-04-16T11:16:27.176Z,10.30
2023-04-16T11:18:57.107Z,10.30
2023-04-16T11:21:26.834Z,10.30
2023-04-16T11:23:54.847Z,10.30
2023-04-16T11:26:28.494Z,10.20
2023-04-16T11:28:57.414Z,10.20
2023-04-16T11:31:27.071Z,10.20
2023-04-16T11:33:57.661Z,10.30
2023-04-16T11:36:27.703Z,10.30
2023-04-16T11:39:03.773Z,10.30
2023-04-16T11:41:31.755Z,10.30
2023-04-16T11:43:59.578Z,10.40
2023-04-16T11:46:39.601Z,10.40
2023-04-16T11:49:08.684Z,10.40
2023-04-16T11:51:42.114Z,10.50
2023-04-16T11:54:12.008Z,10.50
2023-04-16T11:56:46.535Z,10.50
2023-04-16T11:59:15.889Z,10.50
2023-04-16T12:01:46.758Z,10.50
2023-04-16T12:04:15.804Z,10.40
2023-04-16T12:07:12.553Z,10.40
2023-04-16T12:09:42.221Z,10.40
2023-04-16T12:12:30.393Z,10.50
2023-04-16T12:14:59.601Z,10.50
2023-04-16T12:17:27.523Z,10.50
2023-04-16T12:19:58.592Z,10.60
2023-04-16T12:22:34.102Z,10.60
2023-04-16T12:25:04.952Z,10.60
2023-04-16T12:27:46.728Z,10.60
2023-04-16T12:30:15.955Z,10.70
2023-04-16T12:32:44.847Z,10.80
2023-04-16T12:35:13.378Z,10.80
2023-04-16T12:37:42.671Z,10.90
2023-04-16T12:40:11.547Z,10.90
2023-04-16T12:42:39.408Z,11.00
2023-04-16T12:45:08.143Z,10.90
2023-04-16T12:47:35.965Z,11.00
2023-04-16T12:50:03.937Z,10.90
2023-04-16T12:52:31.846Z,11.10
2023-04-16T12:55:02.503Z,11.00
2023-04-16T12:57:30.372Z,11.00
2023-04-16T12:59:58.536Z,11.10
2023-04-16T13:02:27.012Z,11.20
2023-04-16T13:04:55.626Z,11.30
2023-04-16T13:07:24.209Z,11.30
2023-04-16T13:09:52.190Z,11.30
2023-04-16T13:12:21.454Z,11.30
2023-04-16T13:14:49.267Z,11.30
2023-04-16T13:17:17.259Z,11.30
2023-04-16T13:19:45.637Z,11.30
2023-04-16T13:22:13.830Z,11.30
2023-04-16T13:24:41.637Z,11.40
2023-04-16T13:27:09.738Z,11.40
2023-04-16T13:29:38.989Z,11.50
2023-04-16T13:32:07.388Z,11.60
2023-04-16T13:34:35.744Z,11.60
2023-04-16T13:37:03.727Z,11.50
2023-04-16T13:39:31.555Z,11.60
2023-04-16T13:42:00.035Z,11.50
2023-04-16T13:44:27.853Z,11.50
2023-04-16T13:46:57.460Z,11.50
2023-04-16T13:49:25.460Z,11.50
2023-04-16T13:51:53.415Z,11.60
2023-04-16T13:54:21.292Z,11.60
2023-04-16T13:56:51.021Z,11.60
2023-04-16T13:59:20.112Z,11.50
2023-04-16T14:01:47.998Z,11.50
2023-04-16T14:04:17.234Z,11.60
2023-04-16T14:06:45.204Z,11.60
2023-04-16T14:09:13.181Z,11.50
2023-04-16T14:11:41.373Z,11.50
2023-04-16T14:14:09.212Z,11.60
2023-04-16T14:16:37.176Z,11.60
2023-04-16T14:19:05.065Z,11.60
2023-04-16T14:21:34.454Z,11.60
2023-04-16T14:24:02.296Z,11.70
2023-04-16T14:26:30.244Z,11.70
2023-04-16T14:28:58.111Z,11.70
2023-04-16T14:31:26.053Z,11.70
2023-04-16T14:33:53.889Z,11.80
2023-04-16T14:36:21.804Z,11.80
2023-04-16T14:38:50.978Z,11.90
2023-04-16T14:41:18.954Z,11.90
2023-04-16T14:43:46.782Z,11.90
2023-04-16T14:46:17.585Z,11.90
2023-04-16T14:48:45.915Z,11.80
2023-04-16T14:51:13.728Z,11.80
2023-04-16T14:53:41.602Z,11.80
2023-04-16T14:56:13.472Z,11.80
2023-04-16T14:58:42.736Z,11.80
2023-04-16T15:01:10.910Z,11.80
2023-04-16T15:03:38.822Z,11.80
2023-04-16T15:06:07.045Z,11.80
2023-04-16T15:08:35.690Z,11.70
2023-04-16T15:11:04.045Z,11.80
2023-04-16T15:13:34.523Z,11.80
2023-04-16T15:16:02.544Z,11.80
2023-04-16T15:18:30.486Z,11.80
2023-04-16T15:20:58.582Z,11.80
2023-04-16T15:23:26.549Z,11.70
2023-04-16T15:25:54.516Z,11.80
2023-04-16T15:28:22.485Z,11.70
2023-04-16T15:30:52.901Z,11.60
2023-04-16T15:33:22.145Z,11.60
2023-04-16T15:35:51.387Z,11.50
2023-04-16T15:38:20.959Z,11.60
2023-04-16T15:40:49.031Z,11.60
2023-04-16T15:43:17.176Z,11.50
2023-04-16T15:45:45.051Z,11.60
2023-04-16T15:48:14.304Z,11.60
2023-04-16T15:50:42.367Z,11.60
2023-04-16T15:53:10.178Z,11.60
2023-04-16T15:55:38.262Z,11.60
2023-04-16T15:58:06.361Z,11.60
2023-04-16T16:00:34.227Z,11.50
2023-04-16T16:03:03.459Z,11.50
2023-04-16T16:05:32.880Z,11.40
2023-04-16T16:08:01.542Z,11.40
2023-04-16T16:10:29.499Z,11.40
2023-04-16T16:13:01.785Z,11.30
2023-04-16T16:15:30.153Z,11.30
2023-04-16T16:17:58.612Z,11.30
2023-04-16T16:20:27.344Z,11.30
2023-04-16T16:22:56.924Z,11.30
2023-04-16T16:25:25.128Z,11.40
2023-04-16T16:27:53.314Z,11.40
2023-04-16T16:30:21.345Z,11.20
2023-04-16T16:32:49.273Z,11.30
2023-04-16T16:35:17.201Z,11.30
2023-04-16T16:37:45.079Z,11.20
2023-04-16T16:40:14.322Z,11.20
2023-04-16T16:42:42.340Z,11.40
2023-04-16T16:45:11.482Z,11.30
2023-04-16T16:47:39.353Z,11.20
2023-04-16T16:50:11.267Z,11.10
2023-04-16T16:52:39.252Z,11.10
2023-04-16T16:55:10.842Z,11.10
2023-04-16T16:57:40.252Z,11.00
2023-04-16T17:00:13.955Z,11.00
2023-04-16T17:02:42.133Z,11.00
2023-04-16T17:05:10.822Z,11.00
2023-04-16T17:07:38.709Z,10.90
2023-04-16T17:10:07.455Z,10.80
2023-04-16T17:12:36.239Z,10.70
2023-04-16T17:15:06.348Z,10.70
2023-04-16T17:17:34.271Z,10.70
2023-04-16T17:20:04.311Z,10.70
2023-04-16T17:22:32.255Z,10.70
2023-04-16T17:25:00.294Z,10.70
2023-04-16T17:27:29.346Z,10.60
2023-04-16T17:30:00.113Z,10.50
2023-04-16T17:32:30.217Z,10.50
2023-04-16T17:34:58.196Z,10.50
2023-04-16T17:37:26.241Z,10.50
2023-04-16T17:39:54.188Z,10.40
2023-04-16T17:42:22.090Z,10.50
2023-04-16T17:44:50.004Z,10.50
2023-04-16T17:47:17.840Z,10.50
2023-04-16T17:49:47.091Z,10.40
2023-04-16T17:52:14.976Z,10.30
2023-04-16T17:54:43.316Z,10.30
2023-04-16T17:57:11.320Z,10.20
2023-04-16T17:59:39.122Z,10.30
2023-04-16T18:02:07.350Z,10.20
2023-04-16T18:04:35.276Z,10.20
2023-04-16T18:07:04.607Z,10.20
2023-04-16T18:09:32.404Z,10.10
2023-04-16T18:12:00.319Z,10.10
2023-04-16T18:14:28.149Z,10.10
2023-04-16T18:16:56.041Z,10.00
2023-04-16T18:19:23.835Z,10.00
2023-04-16T18:21:51.758Z,9.90
2023-04-16T18:24:21.229Z,9.90
2023-04-16T18:26:49.117Z,9.90
2023-04-16T18:29:18.149Z,9.80
2023-04-16T18:31:47.864Z,9.70
2023-04-16T18:34:15.818Z,9.70
2023-04-16T18:36:44.981Z,9.70
2023-04-16T18:39:12.792Z,9.70
2023-04-16T18:41:42.533Z,9.70
2023-04-16T18:44:10.854Z,9.60
2023-04-16T18:46:38.674Z,9.70
2023-04-16T18:49:06.545Z,9.70
2023-04-16T18:51:34.388Z,9.70
2023-04-16T18:54:02.344Z,9.70
2023-04-16T18:56:30.935Z,9.70
2023-04-16T18:59:00.200Z,9.70
2023-04-16T19:01:28.099Z,9.70
2023-04-16T19:03:56.020Z,9.70
2023-04-16T19:06:23.905Z,9.70
2023-04-16T19:08:51.783Z,9.70
2023-04-16T19:11:19.674Z,9.70
2023-04-16T19:13:47.510Z,9.70
2023-04-16T19:16:16.892Z,9.70
2023-04-16T19:18:44.770Z,9.60
2023-04-16T19:21:12.636Z,9.70
2023-04-16T19:23:40.452Z,9.60
2023-04-16T19:26:08.272Z,9.60
2023-04-16T19:28:36.068Z,9.60
2023-04-16T19:31:03.936Z,9.70
2023-04-16T19:33:33.037Z,9.70
2023-04-16T19:36:01.663Z,9.70
2023-04-16T19:38:31.642Z,9.70
2023-04-16T19:40:59.808Z,9.60
2023-04-16T19:43:30.592Z,9.60
2023-04-16T19:45:58.924Z,9.50
2023-04-16T19:48:26.808Z,9.50
2023-04-16T19:50:56.035Z,9.60
2023-04-16T19:53:24.392Z,9.60
2023-04-16T19:55:52.426Z,9.60
2023-04-16T19:58:20.202Z,9.50
2023-04-16T20:00:48.210Z,9.50
2023-04-16T20:03:16.254Z,9.50
2023-04-16T20:05:44.136Z,9.40
2023-04-16T20:08:13.314Z,9.50
2023-04-16T20:10:41.170Z,9.40
2023-04-16T20:13:11.873Z,9.50
2023-04-16T20:15:39.776Z,9.40
2023-04-16T20:18:08.461Z,9.40
2023-04-16T20:20:37.715Z,9.40
2023-04-16T20:23:05.650Z,9.40
2023-04-16T20:25:34.913Z,9.40
2023-04-16T20:28:02.735Z,9.40
2023-04-16T20:30:38.467Z,9.30
2023-04-16T20:33:07.301Z,9.30
2023-04-16T20:35:35.885Z,9.30
2023-04-16T20:38:03.774Z,9.30
2023-04-16T20:40:31.584Z,9.30
2023-04-16T20:43:01.202Z,9.30
2023-04-16T20:45:32.214Z,9.30
2023-04-16T20:48:00.314Z,9.30
2023-04-16T20:50:28.760Z,9.20
2023-04-16T20:52:56.653Z,9.20
2023-04-16T20:55:24.473Z,9.20
2023-04-16T20:57:52.364Z,9.20
2023-04-16T21:00:22.318Z,9.20
2023-04-16T21:02:50.474Z,9.20
2023-04-16T21:05:21.189Z,9.20
2023-04-16T21:07:49.010Z,9.10
2023-04-16T21:10:19.959Z,9.10
2023-04-16T21:12:47.796Z,9.10
2023-04-16T21:15:15.729Z,9.10
2023-04-16T21:17:45.032Z,9.10
2023-04-16T21:20:13.966Z,9.10
2023-04-16T21:22:41.858Z,9.10
2023-04-16T21:25:10.828Z,9.10
2023-04-16T21:27:38.640Z,9.10
2023-04-16T21:30:07.709Z,9.10
2023-04-16T21:32:35.675Z,9.10
2023-04-16T21:35:05.664Z,9.10
2023-04-16T21:37:33.747Z,9.10
2023-04-16T21:40:01.796Z,9.00
2023-04-16T21:42:31.338Z,9.00
2023-04-16T21:44:59.683Z,9.00
2023-04-16T21:47:27.505Z,9.00
2023-04-16T21:49:55.398Z,8.90
2023-04-16T21:52:24.632Z,8.90
2023-04-16T21:54:52.654Z,8.90
2023-04-16T21:57:20.623Z,8.90
2023-04-16T21:59:48.513Z,8.80
2023-04-16T22:02:16.430Z,8.80
2023-04-16T22:04:44.340Z,8.80
2023-04-16T22:07:12.499Z,8.80
2023-04-16T22:09:42.173Z,8.80
2023-04-16T22:12:10.967Z,8.70
2023-04-16T22:14:46.221Z,8.70
2023-04-16T22:17:23.839Z,8.60
2023-04-16T22:19:53.389Z,8.60
2023-04-16T22:22:21.982Z,8.60
2023-04-16T22:24:51.339Z,8.70
2023-04-16T22:27:19.359Z,8.70
2023-04-16T22:29:47.158Z,8.70
2023-04-16T22:32:15.380Z,8.60
2023-04-16T22:34:43.205Z,8.60
2023-04-16T22:37:11.139Z,8.60
2023-04-16T22:39:39.021Z,8.50
2023-04-16T22:42:08.269Z,8.50
2023-04-16T22:44:37.353Z,8.50
2023-04-16T22:47:05.377Z,8.60
2023-04-16T22:49:33.305Z,8.60
2023-04-16T22:52:01.617Z,8.60
2023-04-16T22:54:29.764Z,8.60
2023-04-16T22:56:58.015Z,8.60
2023-04-16T22:59:27.249Z,8.60
2023-04-16T23:01:55.178Z,8.60
2023-04-16T23:04:23.110Z,8.60
2023-04-16T23:06:51.248Z,8.50
2023-04-16T23:09:20.389Z,8.50
2023-04-16T23:11:48.368Z,8.50
2023-04-16T23:14:16.908Z,8.50
2023-04-16T23:16:46.314Z,8.50
2023-04-16T23:19:15.585Z,8.50
2023-04-16T23:21:43.395Z,8.50
2023-04-16T23:24:11.259Z,8.50
2023-04-16T23:26:39.129Z,8.50
2023-04-16T23:29:07.089Z,8.50
2023-04-16T23:31:34.890Z,8.50
2023-04-16T23:34:04.196Z,8.50
2023-04-16T23:36:32.018Z,8.50
2023-04-16T23:38:59.858Z,8.50
2023-04-16T23:41:27.649Z,8.50
2023-04-16T23:43:55.500Z,8.50
2023-04-16T23:46:23.434Z,8.50
2023-04-16T23:48:52.558Z,8.50
2023-04-16T23:51:21.701Z,8.50
2023-04-16T23:53:49.583Z,8.50
2023-04-16T23:56:17.378Z,8.50
2023-04-16T23:58:45.240Z,8.50
